sensor_id;sensor_type;location;lat;lon;timestamp;P1;durP1;ratioP1;P2;durP2;ratioP2
69008;SDS011;56065;52.472;13.380;2023-06-10T00:01:28;12.23;;;4.20;;
69008;SDS011;56065;52.472;13.380;2023-06-10T00:03:53;10.23;;;3.47;;
69008;SDS011;56065;52.472;13.380;2023-06-10T00:06:19;11.45;;;3.85;;
69008;SDS011;56065;52.472;13.380;2023-06-10T00:08:46;11.17;;;4.07;;
69008;SDS011;56065;52.472;13.380;2023-06-10T00:11:12;10.80;;;3.60;;
69008;SDS011;56065;52.472;13.380;2023-06-10T00:13:37;11.73;;;3.95;;
69008;SDS011;56065;52.472;13.380;2023-06-10T00:16:03;10.40;;;4.23;;
69008;SDS011;56065;52.472;13.380;2023-06-10T00:18:29;11.07;;;3.70;;
69008;SDS011;56065;52.472;13.380;2023-06-10T00:20:56;13.05;;;3.75;;
69008;SDS011;56065;52.472;13.380;2023-06-10T00:23:22;12.15;;;3.70;;
69008;SDS011;56065;52.472;13.380;2023-06-10T00:25:50;9.38;;;3.70;;
69008;SDS011;56065;52.472;13.380;2023-06-10T00:28:15;10.60;;;3.53;;
69008;SDS011;56065;52.472;13.380;2023-06-10T00:30:40;12.13;;;3.93;;
69008;SDS011;56065;52.472;13.380;2023-06-10T00:33:06;13.87;;;3.90;;
69008;SDS011;56065;52.472;13.380;2023-06-10T00:35:31;10.17;;;3.50;;
69008;SDS011;56065;52.472;13.380;2023-06-10T00:37:56;13.10;;;4.20;;
69008;SDS011;56065;52.472;13.380;2023-06-10T00:40:22;10.30;;;3.67;;
69008;SDS011;56065;52.472;13.380;2023-06-10T00:42:47;11.87;;;3.60;;
69008;SDS011;56065;52.472;13.380;2023-06-10T00:45:12;10.87;;;3.53;;
69008;SDS011;56065;52.472;13.380;2023-06-10T00:47:38;11.33;;;3.57;;
69008;SDS011;56065;52.472;13.380;2023-06-10T00:50:04;12.90;;;3.40;;
69008;SDS011;56065;52.472;13.380;2023-06-10T00:52:30;9.85;;;3.55;;
69008;SDS011;56065;52.472;13.380;2023-06-10T00:54:56;14.13;;;3.90;;
69008;SDS011;56065;52.472;13.380;2023-06-10T00:57:22;9.95;;;3.60;;
69008;SDS011;56065;52.472;13.380;2023-06-10T00:59:47;11.23;;;4.27;;
69008;SDS011;56065;52.472;13.380;2023-06-10T01:02:14;12.27;;;4.15;;
69008;SDS011;56065;52.472;13.380;2023-06-10T01:04:39;15.03;;;4.03;;
69008;SDS011;56065;52.472;13.380;2023-06-10T01:14:49;12.63;;;3.33;;
69008;SDS011;56065;52.472;13.380;2023-06-10T01:17:16;14.27;;;3.70;;
69008;SDS011;56065;52.472;13.380;2023-06-10T01:19:43;11.40;;;3.50;;
69008;SDS011;56065;52.472;13.380;2023-06-10T01:22:09;11.80;;;3.83;;
69008;SDS011;56065;52.472;13.380;2023-06-10T01:24:35;12.02;;;3.60;;
69008;SDS011;56065;52.472;13.380;2023-06-10T01:27:01;14.07;;;4.30;;
69008;SDS011;56065;52.472;13.380;2023-06-10T01:29:41;12.00;;;3.97;;
69008;SDS011;56065;52.472;13.380;2023-06-10T01:32:21;10.10;;;3.53;;
69008;SDS011;56065;52.472;13.380;2023-06-10T01:34:51;13.00;;;4.22;;
69008;SDS011;56065;52.472;13.380;2023-06-10T01:37:19;15.23;;;3.80;;
69008;SDS011;56065;52.472;13.380;2023-06-10T01:39:47;13.45;;;3.83;;
69008;SDS011;56065;52.472;13.380;2023-06-10T01:42:14;12.77;;;4.23;;
69008;SDS011;56065;52.472;13.380;2023-06-10T01:44:40;13.52;;;3.72;;
69008;SDS011;56065;52.472;13.380;2023-06-10T01:47:06;13.95;;;3.90;;
69008;SDS011;56065;52.472;13.380;2023-06-10T01:49:32;12.20;;;3.97;;
69008;SDS011;56065;52.472;13.380;2023-06-10T01:51:57;10.43;;;3.20;;
69008;SDS011;56065;52.472;13.380;2023-06-10T01:54:23;12.88;;;4.07;;
69008;SDS011;56065;52.472;13.380;2023-06-10T01:56:48;12.83;;;3.70;;
69008;SDS011;56065;52.472;13.380;2023-06-10T01:59:13;12.07;;;3.60;;
69008;SDS011;56065;52.472;13.380;2023-06-10T02:01:39;11.80;;;3.60;;
69008;SDS011;56065;52.472;13.380;2023-06-10T02:04:04;14.90;;;3.77;;
69008;SDS011;56065;52.472;13.380;2023-06-10T02:06:29;9.67;;;3.70;;
69008;SDS011;56065;52.472;13.380;2023-06-10T02:08:55;12.03;;;3.57;;
69008;SDS011;56065;52.472;13.380;2023-06-10T02:11:20;10.65;;;3.67;;
69008;SDS011;56065;52.472;13.380;2023-06-10T02:13:45;10.93;;;3.60;;
69008;SDS011;56065;52.472;13.380;2023-06-10T02:16:11;11.20;;;3.67;;
69008;SDS011;56065;52.472;13.380;2023-06-10T02:18:37;11.35;;;3.67;;
69008;SDS011;56065;52.472;13.380;2023-06-10T02:21:03;11.60;;;3.60;;
69008;SDS011;56065;52.472;13.380;2023-06-10T02:23:28;12.60;;;3.57;;
69008;SDS011;56065;52.472;13.380;2023-06-10T02:25:54;9.43;;;3.53;;
69008;SDS011;56065;52.472;13.380;2023-06-10T02:28:19;12.80;;;3.90;;
69008;SDS011;56065;52.472;13.380;2023-06-10T02:30:44;12.30;;;3.50;;
69008;SDS011;56065;52.472;13.380;2023-06-10T02:33:11;9.15;;;3.78;;
69008;SDS011;56065;52.472;13.380;2023-06-10T02:35:40;15.53;;;3.77;;
69008;SDS011;56065;52.472;13.380;2023-06-10T02:38:05;12.95;;;3.80;;
69008;SDS011;56065;52.472;13.380;2023-06-10T02:40:31;13.50;;;3.93;;
69008;SDS011;56065;52.472;13.380;2023-06-10T02:42:56;12.07;;;3.83;;
69008;SDS011;56065;52.472;13.380;2023-06-10T02:45:23;11.20;;;4.10;;
69008;SDS011;56065;52.472;13.380;2023-06-10T02:47:48;14.23;;;3.70;;
69008;SDS011;56065;52.472;13.380;2023-06-10T02:50:13;10.20;;;3.80;;
69008;SDS011;56065;52.472;13.380;2023-06-10T02:52:39;12.30;;;3.70;;
69008;SDS011;56065;52.472;13.380;2023-06-10T02:55:04;10.83;;;3.97;;
69008;SDS011;56065;52.472;13.380;2023-06-10T02:57:30;11.90;;;4.07;;
69008;SDS011;56065;52.472;13.380;2023-06-10T02:59:55;11.07;;;4.40;;
69008;SDS011;56065;52.472;13.380;2023-06-10T03:02:21;12.60;;;4.07;;
69008;SDS011;56065;52.472;13.380;2023-06-10T03:04:46;13.03;;;4.17;;
69008;SDS011;56065;52.472;13.380;2023-06-10T03:07:12;11.65;;;3.70;;
69008;SDS011;56065;52.472;13.380;2023-06-10T03:09:38;11.85;;;3.97;;
69008;SDS011;56065;52.472;13.380;2023-06-10T03:12:04;13.23;;;3.93;;
69008;SDS011;56065;52.472;13.380;2023-06-10T03:14:31;13.88;;;3.90;;
69008;SDS011;56065;52.472;13.380;2023-06-10T03:16:56;12.03;;;3.97;;
69008;SDS011;56065;52.472;13.380;2023-06-10T03:19:21;14.77;;;3.70;;
69008;SDS011;56065;52.472;13.380;2023-06-10T03:21:49;10.48;;;3.75;;
69008;SDS011;56065;52.472;13.380;2023-06-10T03:24:15;13.70;;;3.85;;
69008;SDS011;56065;52.472;13.380;2023-06-10T03:26:41;13.13;;;3.93;;
69008;SDS011;56065;52.472;13.380;2023-06-10T03:29:06;12.30;;;4.28;;
69008;SDS011;56065;52.472;13.380;2023-06-10T03:31:32;13.57;;;4.10;;
69008;SDS011;56065;52.472;13.380;2023-06-10T03:33:57;13.13;;;4.17;;
69008;SDS011;56065;52.472;13.380;2023-06-10T03:36:23;15.40;;;4.35;;
69008;SDS011;56065;52.472;13.380;2023-06-10T03:38:49;13.73;;;4.77;;
69008;SDS011;56065;52.472;13.380;2023-06-10T03:41:16;12.45;;;3.80;;
69008;SDS011;56065;52.472;13.380;2023-06-10T03:43:42;12.67;;;4.20;;
69008;SDS011;56065;52.472;13.380;2023-06-10T03:46:09;13.18;;;4.60;;
69008;SDS011;56065;52.472;13.380;2023-06-10T03:48:35;12.52;;;4.45;;
69008;SDS011;56065;52.472;13.380;2023-06-10T03:51:01;11.67;;;4.17;;
69008;SDS011;56065;52.472;13.380;2023-06-10T03:53:26;10.55;;;4.03;;
69008;SDS011;56065;52.472;13.380;2023-06-10T03:55:52;12.67;;;4.53;;
69008;SDS011;56065;52.472;13.380;2023-06-10T03:58:17;14.87;;;4.47;;
69008;SDS011;56065;52.472;13.380;2023-06-10T04:00:43;12.23;;;4.07;;
69008;SDS011;56065;52.472;13.380;2023-06-10T04:03:08;16.08;;;4.53;;
69008;SDS011;56065;52.472;13.380;2023-06-10T04:05:34;11.37;;;4.10;;
69008;SDS011;56065;52.472;13.380;2023-06-10T04:07:59;11.35;;;3.95;;
69008;SDS011;56065;52.472;13.380;2023-06-10T04:10:26;14.53;;;4.63;;
69008;SDS011;56065;52.472;13.380;2023-06-10T04:12:52;11.55;;;4.30;;
69008;SDS011;56065;52.472;13.380;2023-06-10T04:15:17;11.17;;;4.20;;
69008;SDS011;56065;52.472;13.380;2023-06-10T04:17:42;13.80;;;4.63;;
69008;SDS011;56065;52.472;13.380;2023-06-10T04:20:08;14.70;;;4.77;;
69008;SDS011;56065;52.472;13.380;2023-06-10T04:22:34;14.33;;;4.17;;
69008;SDS011;56065;52.472;13.380;2023-06-10T04:25:01;12.50;;;4.38;;
69008;SDS011;56065;52.472;13.380;2023-06-10T04:27:27;12.90;;;4.53;;
69008;SDS011;56065;52.472;13.380;2023-06-10T04:29:52;12.40;;;4.00;;
69008;SDS011;56065;52.472;13.380;2023-06-10T04:32:18;13.35;;;4.25;;
69008;SDS011;56065;52.472;13.380;2023-06-10T04:34:43;13.73;;;4.60;;
69008;SDS011;56065;52.472;13.380;2023-06-10T04:37:09;12.17;;;4.43;;
69008;SDS011;56065;52.472;13.380;2023-06-10T04:39:34;13.77;;;4.60;;
69008;SDS011;56065;52.472;13.380;2023-06-10T04:41:59;12.60;;;4.77;;
69008;SDS011;56065;52.472;13.380;2023-06-10T04:44:25;12.27;;;4.55;;
69008;SDS011;56065;52.472;13.380;2023-06-10T04:46:51;12.80;;;4.10;;
69008;SDS011;56065;52.472;13.380;2023-06-10T04:49:16;13.03;;;4.30;;
69008;SDS011;56065;52.472;13.380;2023-06-10T04:51:41;12.10;;;4.75;;
69008;SDS011;56065;52.472;13.380;2023-06-10T04:54:07;12.73;;;5.03;;
69008;SDS011;56065;52.472;13.380;2023-06-10T04:56:32;9.73;;;4.10;;
69008;SDS011;56065;52.472;13.380;2023-06-10T04:58:58;14.30;;;5.20;;
69008;SDS011;56065;52.472;13.380;2023-06-10T05:01:24;14.85;;;5.10;;
69008;SDS011;56065;52.472;13.380;2023-06-10T05:03:50;12.23;;;4.50;;
69008;SDS011;56065;52.472;13.380;2023-06-10T05:06:15;15.30;;;7.07;;
69008;SDS011;56065;52.472;13.380;2023-06-10T05:08:40;12.13;;;5.30;;
69008;SDS011;56065;52.472;13.380;2023-06-10T05:11:06;12.37;;;4.87;;
69008;SDS011;56065;52.472;13.380;2023-06-10T05:13:31;13.77;;;5.05;;
69008;SDS011;56065;52.472;13.380;2023-06-10T05:15:57;12.57;;;4.67;;
69008;SDS011;56065;52.472;13.380;2023-06-10T05:18:23;12.43;;;4.50;;
69008;SDS011;56065;52.472;13.380;2023-06-10T05:20:48;12.53;;;4.57;;
69008;SDS011;56065;52.472;13.380;2023-06-10T05:23:14;13.27;;;4.73;;
69008;SDS011;56065;52.472;13.380;2023-06-10T05:25:39;11.05;;;5.10;;
69008;SDS011;56065;52.472;13.380;2023-06-10T05:28:05;13.60;;;4.97;;
69008;SDS011;56065;52.472;13.380;2023-06-10T05:30:34;11.38;;;4.30;;
69008;SDS011;56065;52.472;13.380;2023-06-10T05:33:00;12.37;;;4.60;;
69008;SDS011;56065;52.472;13.380;2023-06-10T05:35:25;12.10;;;4.80;;
69008;SDS011;56065;52.472;13.380;2023-06-10T05:37:50;10.90;;;4.57;;
69008;SDS011;56065;52.472;13.380;2023-06-10T05:40:16;12.40;;;4.67;;
69008;SDS011;56065;52.472;13.380;2023-06-10T05:42:41;11.00;;;4.80;;
69008;SDS011;56065;52.472;13.380;2023-06-10T05:45:06;13.27;;;4.80;;
69008;SDS011;56065;52.472;13.380;2023-06-10T05:47:32;14.18;;;5.28;;
69008;SDS011;56065;52.472;13.380;2023-06-10T05:49:57;13.13;;;4.90;;
69008;SDS011;56065;52.472;13.380;2023-06-10T05:52:23;13.97;;;5.27;;
69008;SDS011;56065;52.472;13.380;2023-06-10T05:54:48;14.20;;;5.37;;
69008;SDS011;56065;52.472;13.380;2023-06-10T05:57:15;13.93;;;5.00;;
69008;SDS011;56065;52.472;13.380;2023-06-10T05:59:40;13.73;;;5.32;;
69008;SDS011;56065;52.472;13.380;2023-06-10T06:02:06;13.13;;;5.40;;
69008;SDS011;56065;52.472;13.380;2023-06-10T06:04:31;13.93;;;5.30;;
69008;SDS011;56065;52.472;13.380;2023-06-10T06:06:57;14.40;;;5.47;;
69008;SDS011;56065;52.472;13.380;2023-06-10T06:09:22;12.10;;;5.73;;
69008;SDS011;56065;52.472;13.380;2023-06-10T06:11:47;11.93;;;5.77;;
69008;SDS011;56065;52.472;13.380;2023-06-10T06:14:13;12.50;;;5.20;;
69008;SDS011;56065;52.472;13.380;2023-06-10T06:16:38;13.53;;;5.40;;
69008;SDS011;56065;52.472;13.380;2023-06-10T06:19:04;13.50;;;5.47;;
69008;SDS011;56065;52.472;13.380;2023-06-10T06:21:29;14.63;;;5.63;;
69008;SDS011;56065;52.472;13.380;2023-06-10T06:23:54;13.00;;;5.97;;
69008;SDS011;56065;52.472;13.380;2023-06-10T06:26:20;13.60;;;5.87;;
69008;SDS011;56065;52.472;13.380;2023-06-10T06:28:45;13.30;;;5.13;;
69008;SDS011;56065;52.472;13.380;2023-06-10T06:31:11;14.10;;;5.35;;
69008;SDS011;56065;52.472;13.380;2023-06-10T06:33:36;10.83;;;5.10;;
69008;SDS011;56065;52.472;13.380;2023-06-10T06:36:02;12.50;;;5.60;;
69008;SDS011;56065;52.472;13.380;2023-06-10T06:38:27;11.45;;;5.18;;
69008;SDS011;56065;52.472;13.380;2023-06-10T06:40:53;11.70;;;5.73;;
69008;SDS011;56065;52.472;13.380;2023-06-10T06:43:19;11.85;;;5.72;;
69008;SDS011;56065;52.472;13.380;2023-06-10T06:45:44;10.20;;;5.50;;
69008;SDS011;56065;52.472;13.380;2023-06-10T06:48:13;11.68;;;5.57;;
69008;SDS011;56065;52.472;13.380;2023-06-10T06:50:38;13.47;;;5.50;;
69008;SDS011;56065;52.472;13.380;2023-06-10T06:53:04;12.60;;;5.87;;
69008;SDS011;56065;52.472;13.380;2023-06-10T06:55:29;14.40;;;5.72;;
69008;SDS011;56065;52.472;13.380;2023-06-10T06:57:55;10.93;;;6.40;;
69008;SDS011;56065;52.472;13.380;2023-06-10T07:00:20;12.50;;;5.50;;
69008;SDS011;56065;52.472;13.380;2023-06-10T07:02:46;12.75;;;6.00;;
69008;SDS011;56065;52.472;13.380;2023-06-10T07:05:12;9.93;;;5.37;;
69008;SDS011;56065;52.472;13.380;2023-06-10T07:07:37;13.20;;;5.63;;
69008;SDS011;56065;52.472;13.380;2023-06-10T07:10:03;13.27;;;5.77;;
69008;SDS011;56065;52.472;13.380;2023-06-10T07:12:28;12.60;;;5.73;;
69008;SDS011;56065;52.472;13.380;2023-06-10T07:14:53;12.17;;;6.77;;
69008;SDS011;56065;52.472;13.380;2023-06-10T07:17:19;14.83;;;6.00;;
69008;SDS011;56065;52.472;13.380;2023-06-10T07:19:45;12.90;;;5.95;;
69008;SDS011;56065;52.472;13.380;2023-06-10T07:22:10;9.87;;;5.70;;
69008;SDS011;56065;52.472;13.380;2023-06-10T07:24:36;13.18;;;6.13;;
69008;SDS011;56065;52.472;13.380;2023-06-10T07:27:01;12.47;;;5.70;;
69008;SDS011;56065;52.472;13.380;2023-06-10T07:29:27;12.27;;;5.90;;
69008;SDS011;56065;52.472;13.380;2023-06-10T07:31:52;11.63;;;6.17;;
69008;SDS011;56065;52.472;13.380;2023-06-10T07:34:18;11.48;;;5.60;;
69008;SDS011;56065;52.472;13.380;2023-06-10T07:36:43;14.67;;;6.67;;
69008;SDS011;56065;52.472;13.380;2023-06-10T07:39:09;14.53;;;6.47;;
69008;SDS011;56065;52.472;13.380;2023-06-10T07:41:35;11.07;;;6.75;;
69008;SDS011;56065;52.472;13.380;2023-06-10T07:44:00;11.77;;;6.47;;
69008;SDS011;56065;52.472;13.380;2023-06-10T07:46:26;12.52;;;5.93;;
69008;SDS011;56065;52.472;13.380;2023-06-10T07:48:52;10.10;;;6.05;;
69008;SDS011;56065;52.472;13.380;2023-06-10T07:51:18;10.97;;;6.30;;
69008;SDS011;56065;52.472;13.380;2023-06-10T07:53:44;12.77;;;6.20;;
69008;SDS011;56065;52.472;13.380;2023-06-10T07:56:09;14.17;;;5.97;;
69008;SDS011;56065;52.472;13.380;2023-06-10T07:58:35;11.60;;;6.30;;
69008;SDS011;56065;52.472;13.380;2023-06-10T08:01:00;13.60;;;6.63;;
69008;SDS011;56065;52.472;13.380;2023-06-10T08:03:25;13.50;;;7.40;;
69008;SDS011;56065;52.472;13.380;2023-06-10T08:05:51;13.33;;;7.43;;
69008;SDS011;56065;52.472;13.380;2023-06-10T08:08:16;12.00;;;6.00;;
69008;SDS011;56065;52.472;13.380;2023-06-10T08:10:41;10.47;;;6.43;;
69008;SDS011;56065;52.472;13.380;2023-06-10T08:13:07;14.27;;;6.60;;
69008;SDS011;56065;52.472;13.380;2023-06-10T08:15:33;14.23;;;6.18;;
69008;SDS011;56065;52.472;13.380;2023-06-10T08:17:59;9.97;;;5.93;;
69008;SDS011;56065;52.472;13.380;2023-06-10T08:20:24;13.57;;;6.67;;
69008;SDS011;56065;52.472;13.380;2023-06-10T08:22:50;10.55;;;5.70;;
69008;SDS011;56065;52.472;13.380;2023-06-10T08:25:15;10.73;;;5.93;;
69008;SDS011;56065;52.472;13.380;2023-06-10T08:27:40;14.20;;;5.63;;
69008;SDS011;56065;52.472;13.380;2023-06-10T08:30:06;12.77;;;6.13;;
69008;SDS011;56065;52.472;13.380;2023-06-10T08:32:32;12.68;;;5.82;;
69008;SDS011;56065;52.472;13.380;2023-06-10T08:34:58;13.70;;;6.80;;
69008;SDS011;56065;52.472;13.380;2023-06-10T08:37:23;11.40;;;6.80;;
69008;SDS011;56065;52.472;13.380;2023-06-10T08:39:49;14.00;;;7.95;;
69008;SDS011;56065;52.472;13.380;2023-06-10T08:44:43;11.07;;;5.95;;
69008;SDS011;56065;52.472;13.380;2023-06-10T08:47:14;15.02;;;7.85;;
69008;SDS011;56065;52.472;13.380;2023-06-10T08:49:45;15.07;;;6.28;;
69008;SDS011;56065;52.472;13.380;2023-06-10T08:52:14;13.37;;;7.50;;
69008;SDS011;56065;52.472;13.380;2023-06-10T08:54:50;10.95;;;6.35;;
69008;SDS011;56065;52.472;13.380;2023-06-10T08:57:19;14.38;;;6.90;;
69008;SDS011;56065;52.472;13.380;2023-06-10T08:59:46;15.63;;;6.57;;
69008;SDS011;56065;52.472;13.380;2023-06-10T09:02:12;12.63;;;6.63;;
69008;SDS011;56065;52.472;13.380;2023-06-10T09:04:39;11.00;;;6.30;;
69008;SDS011;56065;52.472;13.380;2023-06-10T09:07:04;13.95;;;6.80;;
69008;SDS011;56065;52.472;13.380;2023-06-10T09:09:31;12.27;;;6.47;;
69008;SDS011;56065;52.472;13.380;2023-06-10T09:11:58;12.15;;;7.35;;
69008;SDS011;56065;52.472;13.380;2023-06-10T09:14:23;10.87;;;6.70;;
69008;SDS011;56065;52.472;13.380;2023-06-10T09:16:50;20.55;;;15.05;;
69008;SDS011;56065;52.472;13.380;2023-06-10T09:19:16;16.60;;;11.10;;
69008;SDS011;56065;52.472;13.380;2023-06-10T09:21:42;46.53;;;15.20;;
69008;SDS011;56065;52.472;13.380;2023-06-10T09:24:07;39.50;;;11.53;;
69008;SDS011;56065;52.472;13.380;2023-06-10T09:26:33;27.83;;;9.35;;
69008;SDS011;56065;52.472;13.380;2023-06-10T09:29:05;32.97;;;10.27;;
69008;SDS011;56065;52.472;13.380;2023-06-10T09:31:32;22.75;;;8.73;;
69008;SDS011;56065;52.472;13.380;2023-06-10T09:36:39;19.53;;;7.67;;
69008;SDS011;56065;52.472;13.380;2023-06-10T09:39:05;13.50;;;5.97;;
69008;SDS011;56065;52.472;13.380;2023-06-10T09:41:40;12.13;;;6.65;;
69008;SDS011;56065;52.472;13.380;2023-06-10T09:44:11;10.77;;;6.40;;
69008;SDS011;56065;52.472;13.380;2023-06-10T09:46:41;10.90;;;5.93;;
69008;SDS011;56065;52.472;13.380;2023-06-10T09:49:06;11.40;;;5.77;;
69008;SDS011;56065;52.472;13.380;2023-06-10T09:51:32;13.43;;;6.38;;
69008;SDS011;56065;52.472;13.380;2023-06-10T09:53:57;12.57;;;5.83;;
69008;SDS011;56065;52.472;13.380;2023-06-10T09:56:36;10.75;;;5.50;;
69008;SDS011;56065;52.472;13.380;2023-06-10T09:59:02;17.27;;;9.15;;
69008;SDS011;56065;52.472;13.380;2023-06-10T10:01:30;13.13;;;5.90;;
69008;SDS011;56065;52.472;13.380;2023-06-10T10:03:55;15.38;;;6.18;;
69008;SDS011;56065;52.472;13.380;2023-06-10T10:06:21;14.67;;;5.40;;
69008;SDS011;56065;52.472;13.380;2023-06-10T10:08:46;11.70;;;6.00;;
69008;SDS011;56065;52.472;13.380;2023-06-10T10:11:19;12.02;;;5.45;;
69008;SDS011;56065;52.472;13.380;2023-06-10T10:13:49;9.52;;;5.57;;
69008;SDS011;56065;52.472;13.380;2023-06-10T10:16:19;11.52;;;5.53;;
69008;SDS011;56065;52.472;13.380;2023-06-10T10:18:59;11.27;;;5.68;;
69008;SDS011;56065;52.472;13.380;2023-06-10T10:21:30;12.53;;;5.87;;
69008;SDS011;56065;52.472;13.380;2023-06-10T10:26:42;13.68;;;5.53;;
69008;SDS011;56065;52.472;13.380;2023-06-10T10:29:11;11.63;;;5.90;;
69008;SDS011;56065;52.472;13.380;2023-06-10T10:31:44;12.43;;;6.03;;
69008;SDS011;56065;52.472;13.380;2023-06-10T10:34:15;11.70;;;6.40;;
69008;SDS011;56065;52.472;13.380;2023-06-10T10:36:43;15.57;;;8.48;;
69008;SDS011;56065;52.472;13.380;2023-06-10T10:39:09;11.10;;;5.78;;
69008;SDS011;56065;52.472;13.380;2023-06-10T10:41:35;10.65;;;5.47;;
69008;SDS011;56065;52.472;13.380;2023-06-10T10:44:01;8.37;;;5.00;;
69008;SDS011;56065;52.472;13.380;2023-06-10T10:46:30;9.65;;;4.50;;
69008;SDS011;56065;52.472;13.380;2023-06-10T10:48:55;9.43;;;5.10;;
69008;SDS011;56065;52.472;13.380;2023-06-10T10:51:22;9.55;;;4.25;;
69008;SDS011;56065;52.472;13.380;2023-06-10T10:56:39;9.47;;;4.37;;
69008;SDS011;56065;52.472;13.380;2023-06-10T10:59:25;7.30;;;3.60;;
69008;SDS011;56065;52.472;13.380;2023-06-10T11:01:50;6.85;;;4.07;;
69008;SDS011;56065;52.472;13.380;2023-06-10T11:04:17;8.80;;;4.57;;
69008;SDS011;56065;52.472;13.380;2023-06-10T11:06:51;8.20;;;4.38;;
69008;SDS011;56065;52.472;13.380;2023-06-10T11:09:27;8.65;;;4.10;;
69008;SDS011;56065;52.472;13.380;2023-06-10T11:11:56;8.35;;;5.25;;
69008;SDS011;56065;52.472;13.380;2023-06-10T11:14:26;7.45;;;4.40;;
69008;SDS011;56065;52.472;13.380;2023-06-10T11:16:53;7.70;;;4.33;;
69008;SDS011;56065;52.472;13.380;2023-06-10T11:19:31;7.95;;;4.43;;
69008;SDS011;56065;52.472;13.380;2023-06-10T11:21:58;8.45;;;4.22;;
69008;SDS011;56065;52.472;13.380;2023-06-10T11:24:25;7.57;;;3.67;;
69008;SDS011;56065;52.472;13.380;2023-06-10T11:26:51;8.70;;;4.82;;
69008;SDS011;56065;52.472;13.380;2023-06-10T11:29:16;6.90;;;4.40;;
69008;SDS011;56065;52.472;13.380;2023-06-10T11:31:43;7.57;;;4.53;;
69008;SDS011;56065;52.472;13.380;2023-06-10T11:34:15;7.53;;;4.90;;
69008;SDS011;56065;52.472;13.380;2023-06-10T11:36:45;7.32;;;5.20;;
69008;SDS011;56065;52.472;13.380;2023-06-10T11:39:11;8.27;;;5.40;;
69008;SDS011;56065;52.472;13.380;2023-06-10T11:41:37;7.85;;;5.60;;
69008;SDS011;56065;52.472;13.380;2023-06-10T11:44:05;10.30;;;5.40;;
69008;SDS011;56065;52.472;13.380;2023-06-10T11:46:34;8.97;;;5.10;;
69008;SDS011;56065;52.472;13.380;2023-06-10T11:49:00;9.50;;;4.97;;
69008;SDS011;56065;52.472;13.380;2023-06-10T11:51:32;8.52;;;6.05;;
69008;SDS011;56065;52.472;13.380;2023-06-10T11:54:02;8.38;;;5.72;;
69008;SDS011;56065;52.472;13.380;2023-06-10T11:56:29;10.50;;;5.18;;
69008;SDS011;56065;52.472;13.380;2023-06-10T11:58:56;8.80;;;5.80;;
69008;SDS011;56065;52.472;13.380;2023-06-10T12:01:22;8.00;;;5.25;;
69008;SDS011;56065;52.472;13.380;2023-06-10T12:04:00;10.23;;;5.95;;
69008;SDS011;56065;52.472;13.380;2023-06-10T12:06:27;11.77;;;8.25;;
69008;SDS011;56065;52.472;13.380;2023-06-10T12:09:02;8.23;;;5.65;;
69008;SDS011;56065;52.472;13.380;2023-06-10T12:11:27;8.53;;;6.17;;
69008;SDS011;56065;52.472;13.380;2023-06-10T12:13:53;9.30;;;6.17;;
69008;SDS011;56065;52.472;13.380;2023-06-10T12:16:18;11.70;;;5.20;;
69008;SDS011;56065;52.472;13.380;2023-06-10T12:18:44;8.93;;;5.10;;
69008;SDS011;56065;52.472;13.380;2023-06-10T12:21:17;7.95;;;4.80;;
69008;SDS011;56065;52.472;13.380;2023-06-10T12:24:08;8.70;;;5.28;;
69008;SDS011;56065;52.472;13.380;2023-06-10T12:29:39;7.82;;;4.72;;
69008;SDS011;56065;52.472;13.380;2023-06-10T12:31:59;10.13;;;4.72;;
69008;SDS011;56065;52.472;13.380;2023-06-10T12:37:03;8.20;;;4.88;;
69008;SDS011;56065;52.472;13.380;2023-06-10T12:39:31;8.87;;;5.40;;
69008;SDS011;56065;52.472;13.380;2023-06-10T12:41:57;8.90;;;5.70;;
69008;SDS011;56065;52.472;13.380;2023-06-10T12:44:32;10.60;;;5.77;;
69008;SDS011;56065;52.472;13.380;2023-06-10T12:46:59;11.63;;;6.05;;
69008;SDS011;56065;52.472;13.380;2023-06-10T12:49:25;9.55;;;6.35;;
69008;SDS011;56065;52.472;13.380;2023-06-10T12:51:51;10.88;;;6.60;;
69008;SDS011;56065;52.472;13.380;2023-06-10T12:54:17;8.90;;;6.10;;
69008;SDS011;56065;52.472;13.380;2023-06-10T12:56:42;11.97;;;6.07;;
69008;SDS011;56065;52.472;13.380;2023-06-10T12:59:08;10.37;;;6.30;;
69008;SDS011;56065;52.472;13.380;2023-06-10T13:01:33;12.37;;;6.60;;
69008;SDS011;56065;52.472;13.380;2023-06-10T13:03:58;10.60;;;5.83;;
69008;SDS011;56065;52.472;13.380;2023-06-10T13:06:24;9.77;;;6.22;;
69008;SDS011;56065;52.472;13.380;2023-06-10T13:08:50;12.20;;;7.25;;
69008;SDS011;56065;52.472;13.380;2023-06-10T13:11:17;11.43;;;8.18;;
69008;SDS011;56065;52.472;13.380;2023-06-10T13:13:42;11.90;;;6.23;;
69008;SDS011;56065;52.472;13.380;2023-06-10T13:16:08;10.53;;;6.40;;
69008;SDS011;56065;52.472;13.380;2023-06-10T13:18:33;10.00;;;6.60;;
69008;SDS011;56065;52.472;13.380;2023-06-10T13:21:02;9.10;;;6.22;;
69008;SDS011;56065;52.472;13.380;2023-06-10T13:23:28;11.48;;;6.22;;
69008;SDS011;56065;52.472;13.380;2023-06-10T13:25:54;9.65;;;7.10;;
69008;SDS011;56065;52.472;13.380;2023-06-10T13:28:20;19.73;;;13.60;;
69008;SDS011;56065;52.472;13.380;2023-06-10T13:30:46;10.93;;;7.35;;
69008;SDS011;56065;52.472;13.380;2023-06-10T13:33:11;9.53;;;6.43;;
69008;SDS011;56065;52.472;13.380;2023-06-10T13:35:37;9.33;;;5.67;;
69008;SDS011;56065;52.472;13.380;2023-06-10T13:38:02;11.33;;;6.13;;
69008;SDS011;56065;52.472;13.380;2023-06-10T13:40:27;11.50;;;6.50;;
69008;SDS011;56065;52.472;13.380;2023-06-10T13:42:53;10.15;;;6.13;;
69008;SDS011;56065;52.472;13.380;2023-06-10T13:45:19;11.80;;;6.43;;
69008;SDS011;56065;52.472;13.380;2023-06-10T13:47:44;8.88;;;5.72;;
69008;SDS011;56065;52.472;13.380;2023-06-10T13:50:10;10.47;;;6.17;;
69008;SDS011;56065;52.472;13.380;2023-06-10T13:52:36;12.20;;;7.53;;
69008;SDS011;56065;52.472;13.380;2023-06-10T13:55:01;10.73;;;6.67;;
69008;SDS011;56065;52.472;13.380;2023-06-10T13:57:26;10.97;;;6.20;;
69008;SDS011;56065;52.472;13.380;2023-06-10T13:59:52;10.57;;;6.17;;
69008;SDS011;56065;52.472;13.380;2023-06-10T14:02:17;10.63;;;6.80;;
69008;SDS011;56065;52.472;13.380;2023-06-10T14:04:42;14.13;;;8.17;;
69008;SDS011;56065;52.472;13.380;2023-06-10T14:07:08;10.27;;;7.33;;
69008;SDS011;56065;52.472;13.380;2023-06-10T14:09:33;11.00;;;6.72;;
69008;SDS011;56065;52.472;13.380;2023-06-10T14:11:58;11.67;;;6.70;;
69008;SDS011;56065;52.472;13.380;2023-06-10T14:14:24;11.30;;;6.60;;
69008;SDS011;56065;52.472;13.380;2023-06-10T14:16:49;10.73;;;6.50;;
69008;SDS011;56065;52.472;13.380;2023-06-10T14:19:15;11.17;;;5.60;;
69008;SDS011;56065;52.472;13.380;2023-06-10T14:21:40;10.27;;;6.00;;
69008;SDS011;56065;52.472;13.380;2023-06-10T14:24:05;10.68;;;6.18;;
69008;SDS011;56065;52.472;13.380;2023-06-10T14:26:31;13.13;;;6.20;;
69008;SDS011;56065;52.472;13.380;2023-06-10T14:28:57;10.75;;;5.85;;
69008;SDS011;56065;52.472;13.380;2023-06-10T14:31:23;13.13;;;6.13;;
69008;SDS011;56065;52.472;13.380;2023-06-10T14:33:48;11.40;;;5.50;;
69008;SDS011;56065;52.472;13.380;2023-06-10T14:36:14;8.30;;;5.50;;
69008;SDS011;56065;52.472;13.380;2023-06-10T14:38:39;9.02;;;5.80;;
69008;SDS011;56065;52.472;13.380;2023-06-10T14:41:04;8.90;;;4.90;;
69008;SDS011;56065;52.472;13.380;2023-06-10T14:43:30;9.10;;;5.20;;